Time;durP1;ratioP1;P1;durP2;ratioP2;P2;SDS_P1;SDS_P2;PMS_P1;PMS_P2;Temp;Humidity;BMP_temperature;BMP_pressure;BME280_temperature;BME280_humidity;BME280_pressure;Samples;Min_cycle;Max_cycle;Signal;HPM_P1;HPM_P2
2021/03/24 00:00:37;;;;;;;9.13;5.53;;;7.50;99.90;;;;;;5034616;28;20230;-72
2021/03/24 00:03:05;;;;;;;10.20;5.80;;;7.50;99.90;;;;;;5034233;28;20218;-72
2021/03/24 00:05:34;;;;;;;10.30;5.60;;;7.50;99.90;;;;;;5035238;28;20313;-72
2021/03/24 00:08:01;;;;;;;10.50;5.90;;;7.50;99.90;;;;;;5032930;28;20211;-72
2021/03/24 00:10:29;;;;;;;11.03;5.77;;;7.50;99.90;;;;;;5032056;28;20690;-72
2021/03/24 00:12:56;;;;;;;12.53;5.20;;;7.50;99.90;;;;;;5029903;28;20222;-72
2021/03/24 00:15:24;;;;;;;9.53;6.03;;;7.50;99.90;;;;;;5020667;28;20237;-73
2021/03/24 00:17:51;;;;;;;9.60;5.77;;;7.50;99.90;;;;;;5031733;28;20235;-73
2021/03/24 00:20:21;;;;;;;10.07;5.70;;;7.40;99.90;;;;;;5028409;28;20286;-72
2021/03/24 00:22:48;;;;;;;11.87;5.80;;;7.40;99.90;;;;;;5033728;28;20209;-73
2021/03/24 00:25:15;;;;;;;12.00;5.77;;;7.40;99.90;;;;;;5030869;28;20297;-71
2021/03/24 00:27:42;;;;;;;10.80;6.27;;;7.40;99.90;;;;;;5028571;28;20608;-71
2021/03/24 00:30:10;;;;;;;12.87;6.07;;;7.40;99.90;;;;;;5032166;28;20290;-72
2021/03/24 00:32:36;;;;;;;8.83;5.80;;;7.40;99.90;;;;;;5027000;28;20349;-71
2021/03/24 00:35:04;;;;;;;9.60;5.23;;;7.40;99.90;;;;;;5020201;28;20279;-71
2021/03/24 00:37:31;;;;;;;8.90;5.60;;;7.40;99.90;;;;;;5029836;28;20265;-71
2021/03/24 00:39:57;;;;;;;9.93;5.83;;;7.40;99.90;;;;;;5022482;28;20203;-72
2021/03/24 00:42:25;;;;;;;8.67;5.33;;;7.40;99.90;;;;;;5028800;28;20210;-73
2021/03/24 00:44:51;;;;;;;8.47;5.40;;;7.40;99.90;;;;;;5029292;28;20234;-72
2021/03/24 00:47:18;;;;;;;13.07;5.67;;;7.40;99.90;;;;;;5021549;28;20210;-72
2021/03/24 00:49:45;;;;;;;11.23;5.37;;;7.40;99.90;;;;;;5016477;28;20205;-71
2021/03/24 00:52:11;;;;;;;9.37;5.23;;;7.30;99.90;;;;;;5029093;28;20713;-72
2021/03/24 00:54:38;;;;;;;9.37;5.17;;;7.40;99.90;;;;;;5031776;28;20671;-72
2021/03/24 00:57:06;;;;;;;11.77;5.70;;;7.30;99.90;;;;;;5028541;28;20203;-73
2021/03/24 00:59:32;;;;;;;10.47;5.03;;;7.30;99.90;;;;;;5028577;28;20211;-73
2021/03/24 01:01:58;;;;;;;9.70;5.63;;;7.30;99.90;;;;;;5031290;28;20252;-72
2021/03/24 01:04:25;;;;;;;8.20;5.03;;;7.30;99.90;;;;;;5028074;28;20619;-73
2021/03/24 01:06:51;;;;;;;10.70;5.50;;;7.30;99.90;;;;;;5030751;28;20235;-73
2021/03/24 01:09:18;;;;;;;7.97;4.77;;;7.30;99.90;;;;;;5030118;28;20229;-73
2021/03/24 01:11:45;;;;;;;10.37;5.93;;;7.30;99.90;;;;;;5022575;28;20219;-73
2021/03/24 01:14:11;;;;;;;8.77;4.97;;;7.20;99.90;;;;;;5030219;28;20313;-72
2021/03/24 01:16:39;;;;;;;7.90;5.43;;;7.20;99.90;;;;;;5027775;28;20213;-72
2021/03/24 01:19:07;;;;;;;8.90;5.37;;;7.20;99.90;;;;;;5032870;28;20203;-72
2021/03/24 01:21:33;;;;;;;10.77;5.57;;;7.20;99.90;;;;;;5021067;28;20238;-72
2021/03/24 01:24:00;;;;;;;10.63;5.17;;;7.10;99.90;;;;;;5030132;28;20198;-73
2021/03/24 01:26:27;;;;;;;9.10;5.33;;;7.10;99.90;;;;;;5030769;28;20215;-71
2021/03/24 01:28:58;;;;;;;10.67;5.40;;;7.10;99.90;;;;;;5031854;28;20586;-71
2021/03/24 01:31:26;;;;;;;10.10;5.77;;;7.00;99.90;;;;;;5028614;28;20298;-71
2021/03/24 01:33:52;;;;;;;10.73;5.17;;;7.00;99.90;;;;;;5030411;28;20239;-72
2021/03/24 01:36:19;;;;;;;6.60;4.57;;;6.90;99.90;;;;;;5030109;28;20578;-71
2021/03/24 01:38:46;;;;;;;7.87;4.93;;;6.90;99.90;;;;;;5033419;28;20289;-72
2021/03/24 01:41:12;;;;;;;11.77;5.50;;;6.80;99.90;;;;;;5033158;28;20317;-72
2021/03/24 01:43:39;;;;;;;9.53;5.10;;;6.80;99.90;;;;;;5021466;28;20211;-71
2021/03/24 01:46:47;;;;;;;8.77;4.87;;;6.80;99.90;;;;;;5026075;28;20227;-71
2021/03/24 01:49:22;;;;;;;9.03;4.87;;;6.80;99.90;;;;;;5026057;28;20548;-71
2021/03/24 01:51:50;;;;;;;8.37;4.70;;;6.80;99.90;;;;;;5035704;28;20224;-71
2021/03/24 01:54:21;;;;;;;8.47;4.87;;;6.70;99.90;;;;;;5025521;28;20552;-71
2021/03/24 01:56:53;;;;;;;7.67;4.17;;;6.70;99.90;;;;;;5025921;28;20198;-71
2021/03/24 01:59:20;;;;;;;10.50;4.30;;;6.70;99.90;;;;;;5028587;28;20215;-72
2021/03/24 02:01:47;;;;;;;6.90;4.80;;;6.60;99.90;;;;;;5035612;28;20198;-72
2021/03/24 02:04:13;;;;;;;7.73;4.57;;;6.50;99.90;;;;;;5035642;28;20555;-71
2021/03/24 02:06:46;;;;;;;8.27;4.40;;;6.50;99.90;;;;;;5028503;28;21430;-71
2021/03/24 02:09:19;;;;;;;10.13;4.53;;;6.50;99.90;;;;;;5028334;28;20258;-71
2021/03/24 02:11:53;;;;;;;7.57;4.07;;;6.50;99.90;;;;;;5024634;28;20247;-71
2021/03/24 02:14:26;;;;;;;7.07;4.50;;;6.40;99.90;;;;;;5031098;28;20223;-71
2021/03/24 02:16:53;;;;;;;7.17;4.17;;;6.40;99.90;;;;;;5028187;28;20282;-71
2021/03/24 02:19:58;;;;;;;9.40;4.80;;;6.40;99.90;;;;;;5035641;28;20645;-71
2021/03/24 02:22:29;;;;;;;8.60;4.90;;;6.40;99.90;;;;;;4997247;28;20686;-72
2021/03/24 02:25:02;;;;;;;8.27;4.27;;;6.40;99.90;;;;;;5022077;28;20610;-72
2021/03/24 02:27:33;;;;;;;8.17;4.77;;;6.40;99.90;;;;;;5030248;28;20202;-71
2021/03/24 02:30:09;;;;;;;7.13;4.57;;;6.40;99.90;;;;;;5025949;28;20203;-70
2021/03/24 02:32:41;;;;;;;7.57;4.70;;;6.40;99.90;;;;;;5027804;28;20223;-70
2021/03/24 02:35:12;;;;;;;8.83;4.73;;;6.40;99.90;;;;;;5026438;28;20206;-73
2021/03/24 02:37:40;;;;;;;11.47;4.73;;;6.40;99.90;;;;;;5032027;28;20199;-71
2021/03/24 02:40:09;;;;;;;8.40;4.63;;;6.40;99.90;;;;;;5021793;28;20579;-72
2021/03/24 02:42:38;;;;;;;7.93;4.87;;;6.30;99.90;;;;;;5032216;28;20226;-72
2021/03/24 02:45:06;;;;;;;10.80;4.40;;;6.30;99.90;;;;;;5030800;28;20222;-73
2021/03/24 02:47:33;;;;;;;7.70;4.60;;;6.30;99.90;;;;;;5024930;28;20269;-70
2021/03/24 02:49:59;;;;;;;9.90;5.10;;;6.20;99.90;;;;;;5028511;28;20644;-71
2021/03/24 02:52:26;;;;;;;7.37;4.40;;;6.20;99.90;;;;;;5025111;28;20272;-70
2021/03/24 02:54:53;;;;;;;8.93;4.77;;;6.20;99.90;;;;;;5024114;28;20216;-71
2021/03/24 02:57:20;;;;;;;7.73;4.47;;;6.10;99.90;;;;;;5032794;28;20234;-72
2021/03/24 02:59:47;;;;;;;10.13;4.50;;;6.10;99.90;;;;;;5027031;28;20202;-72
2021/03/24 03:02:16;;;;;;;8.77;4.67;;;6.10;99.90;;;;;;5031152;28;20687;-72
2021/03/24 03:04:47;;;;;;;7.80;4.40;;;6.10;99.90;;;;;;5029508;28;20290;-71
2021/03/24 03:07:17;;;;;;;5.83;4.27;;;6.00;99.90;;;;;;5030666;28;20781;-71
2021/03/24 03:09:49;;;;;;;6.77;4.50;;;6.00;99.90;;;;;;5030758;28;20225;-70
2021/03/24 03:12:26;;;;;;;6.37;4.40;;;6.00;99.90;;;;;;5033895;28;20559;-71
2021/03/24 03:14:58;;;;;;;7.40;4.67;;;6.00;99.90;;;;;;5028702;28;20296;-71
2021/03/24 03:17:33;;;;;;;8.03;5.07;;;5.90;99.90;;;;;;5027756;28;20293;-70
2021/03/24 03:20:07;;;;;;;8.97;4.63;;;5.90;99.90;;;;;;5026861;28;20223;-72
2021/03/24 03:22:37;;;;;;;7.80;4.93;;;5.90;99.90;;;;;;5034483;28;20194;-71
2021/03/24 03:25:10;;;;;;;9.90;5.30;;;5.90;99.90;;;;;;5032417;28;20293;-69
2021/03/24 03:27:38;;;;;;;8.80;4.93;;;5.90;99.90;;;;;;5026506;28;20213;-71
2021/03/24 03:30:10;;;;;;;10.10;4.77;;;5.80;99.90;;;;;;5024453;28;20259;-70
2021/03/24 03:32:38;;;;;;;8.70;4.80;;;5.90;99.90;;;;;;5024247;28;20221;-71
2021/03/24 03:35:10;;;;;;;10.00;5.10;;;5.90;99.90;;;;;;5030561;28;20210;-72
2021/03/24 03:37:37;;;;;;;10.77;5.17;;;5.80;99.90;;;;;;5029400;28;20201;-69
2021/03/24 03:40:11;;;;;;;10.17;4.57;;;5.80;99.90;;;;;;5029745;28;20203;-72
2021/03/24 03:42:37;;;;;;;9.70;5.30;;;5.80;99.90;;;;;;5031400;28;20207;-72
2021/03/24 03:45:08;;;;;;;12.23;5.63;;;5.80;99.90;;;;;;5026669;28;20225;-71
2021/03/24 03:47:35;;;;;;;11.27;6.13;;;5.80;99.90;;;;;;5023328;28;20226;-71
2021/03/24 03:50:01;;;;;;;8.43;5.23;;;5.80;99.90;;;;;;5028235;28;20203;-71
2021/03/24 03:52:43;;;;;;;7.60;4.40;;;5.80;99.90;;;;;;5034750;28;20652;-70
2021/03/24 03:55:19;;;;;;;11.00;5.57;;;5.80;99.90;;;;;;5033513;28;20238;-71
2021/03/24 03:57:51;;;;;;;9.70;5.43;;;5.70;99.90;;;;;;5021510;28;20199;-70
2021/03/24 04:00:23;;;;;;;8.43;5.63;;;5.70;99.90;;;;;;5025340;28;20199;-70
2021/03/24 04:02:55;;;;;;;10.67;5.20;;;5.70;99.90;;;;;;5029342;28;20202;-70
2021/03/24 04:05:26;;;;;;;8.50;5.27;;;5.60;99.90;;;;;;5026491;28;20209;-70
2021/03/24 04:07:56;;;;;;;11.63;5.90;;;5.60;99.90;;;;;;5031146;28;20225;-72
2021/03/24 04:10:26;;;;;;;12.43;6.70;;;5.50;99.90;;;;;;5033317;28;20257;-70
2021/03/24 04:12:54;;;;;;;13.27;5.80;;;5.50;99.90;;;;;;5028644;28;20240;-70
2021/03/24 04:15:25;;;;;;;9.43;5.70;;;5.60;99.90;;;;;;5028131;28;20632;-70
2021/03/24 04:17:58;;;;;;;10.07;5.90;;;5.60;99.90;;;;;;5025037;28;20230;-70
2021/03/24 04:20:26;;;;;;;9.57;6.33;;;5.60;99.90;;;;;;5031000;28;20207;-69
2021/03/24 04:22:55;;;;;;;8.67;5.60;;;5.60;99.90;;;;;;5024458;28;20294;-72
2021/03/24 04:25:25;;;;;;;13.97;5.87;;;5.60;99.90;;;;;;5029073;28;20207;-72
2021/03/24 04:27:55;;;;;;;8.57;6.07;;;5.60;99.90;;;;;;5030195;28;20252;-71
2021/03/24 04:30:30;;;;;;;7.73;4.93;;;5.60;99.90;;;;;;5030925;28;20294;-70
2021/03/24 04:32:56;;;;;;;9.23;5.57;;;5.60;99.90;;;;;;5027783;28;20253;-71
2021/03/24 04:35:24;;;;;;;9.40;5.73;;;5.60;99.90;;;;;;5018498;28;20207;-70
2021/03/24 04:37:53;;;;;;;9.73;6.23;;;5.60;99.90;;;;;;5026848;28;20210;-70
2021/03/24 04:40:26;;;;;;;13.13;6.30;;;5.60;99.90;;;;;;5031142;28;20210;-70
2021/03/24 04:42:58;;;;;;;9.53;6.27;;;5.60;99.90;;;;;;5020759;28;20238;-70
2021/03/24 04:45:39;;;;;;;10.47;6.03;;;5.60;99.90;;;;;;5028961;28;20289;-71
2021/03/24 04:48:12;;;;;;;11.67;6.37;;;5.60;99.90;;;;;;5024020;28;20217;-72
2021/03/24 04:50:42;;;;;;;9.00;6.20;;;5.60;99.90;;;;;;5030807;28;20206;-70
2021/03/24 04:53:14;;;;;;;10.50;6.67;;;5.60;99.90;;;;;;5030372;28;20211;-70
2021/03/24 04:55:42;;;;;;;10.97;6.53;;;5.70;99.90;;;;;;5031889;28;20205;-71
2021/03/24 04:58:18;;;;;;;11.87;6.83;;;5.70;99.90;;;;;;5029293;28;20202;-71
2021/03/24 05:00:49;;;;;;;12.27;7.30;;;5.60;99.90;;;;;;5032281;28;20290;-71
2021/03/24 05:03:20;;;;;;;10.70;7.70;;;5.70;99.90;;;;;;5036161;28;20247;-70
2021/03/24 05:05:51;;;;;;;11.00;6.63;;;5.70;99.90;;;;;;5034294;28;20249;-70
2021/03/24 05:08:23;;;;;;;11.77;6.97;;;5.60;99.90;;;;;;5030977;28;20286;-70
2021/03/24 05:10:51;;;;;;;9.20;6.63;;;5.60;99.90;;;;;;5034677;28;20702;-71
2021/03/24 05:13:23;;;;;;;12.73;7.37;;;5.60;99.90;;;;;;5031551;28;20329;-71
2021/03/24 05:15:58;;;;;;;11.77;6.63;;;5.60;99.90;;;;;;5033032;28;20297;-72
2021/03/24 05:18:24;;;;;;;13.90;6.90;;;5.60;99.90;;;;;;5034250;28;20206;-70
2021/03/24 05:20:57;;;;;;;11.97;6.77;;;5.60;99.90;;;;;;5024283;28;20717;-71
2021/03/24 05:23:25;;;;;;;12.53;6.97;;;5.60;99.90;;;;;;5021064;28;20573;-71
2021/03/24 05:26:00;;;;;;;14.27;7.90;;;5.60;99.90;;;;;;5038480;28;20230;-71
2021/03/24 05:28:34;;;;;;;13.47;7.27;;;5.70;99.90;;;;;;5033701;28;20214;-71
2021/03/24 05:31:05;;;;;;;10.67;7.43;;;5.70;99.90;;;;;;5034003;28;20203;-70
2021/03/24 05:33:37;;;;;;;9.50;6.97;;;5.80;99.90;;;;;;5036058;28;20230;-71
2021/03/24 05:36:12;;;;;;;11.60;7.00;;;5.80;99.90;;;;;;5033225;28;20203;-71
2021/03/24 05:38:41;;;;;;;10.83;6.43;;;5.80;99.90;;;;;;5030821;28;20651;-70
2021/03/24 05:41:14;;;;;;;14.47;7.67;;;5.80;99.90;;;;;;5025091;28;20298;-71
2021/03/24 05:44:10;;;;;;;15.97;8.63;;;5.90;99.90;;;;;;5035969;28;20209;-69
2021/03/24 05:47:04;;;;;;;12.97;7.63;;;5.90;99.90;;;;;;5019036;28;20210;-70
2021/03/24 05:49:38;;;;;;;14.00;7.23;;;5.90;99.90;;;;;;5031509;28;20820;-70
2021/03/24 05:52:17;;;;;;;11.50;7.07;;;5.90;99.90;;;;;;5026422;28;20217;-70
2021/03/24 05:55:01;;;;;;;12.53;7.07;;;5.90;99.90;;;;;;5029669;28;20214;-69
2021/03/24 05:57:40;;;;;;;10.00;7.07;;;6.00;99.90;;;;;;5028197;28;20229;-69
2021/03/24 06:00:21;;;;;;;15.77;8.80;;;6.00;99.90;;;;;;5028933;28;20215;-70
2021/03/24 06:03:06;;;;;;;19.60;9.07;;;6.00;99.90;;;;;;5033093;28;20261;-70
2021/03/24 06:05:40;;;;;;;13.83;7.33;;;6.10;99.90;;;;;;5029489;28;20262;-70
2021/03/24 06:08:29;;;;;;;12.00;7.20;;;6.10;99.90;;;;;;5033581;28;20206;-70
2021/03/24 06:11:11;;;;;;;10.30;7.00;;;6.20;99.90;;;;;;5029967;28;20298;-70
2021/03/24 06:14:14;;;;;;;17.20;8.57;;;6.20;99.90;;;;;;5030208;28;20229;-72
2021/03/24 06:17:01;;;;;;;11.27;6.90;;;6.20;99.90;;;;;;5024007;28;20199;-71
2021/03/24 06:19:41;;;;;;;14.27;7.63;;;6.30;99.90;;;;;;5029043;28;20199;-71
2021/03/24 06:22:25;;;;;;;12.73;7.20;;;6.40;99.90;;;;;;5028786;28;20199;-71
2021/03/24 06:25:02;;;;;;;11.30;7.10;;;6.30;99.90;;;;;;5031060;28;20206;-72
2021/03/24 06:27:38;;;;;;;11.73;7.17;;;6.30;99.90;;;;;;5028745;28;20605;-75
2021/03/24 06:30:30;;;;;;;13.80;7.50;;;6.30;99.90;;;;;;5028923;28;20605;-74
2021/03/24 06:33:25;;;;;;;15.10;7.90;;;6.30;99.90;;;;;;5022940;28;20291;-73
2021/03/24 06:36:19;;;;;;;15.17;7.07;;;6.30;99.90;;;;;;5033079;28;20226;-73
2021/03/24 06:39:07;;;;;;;13.53;7.67;;;6.30;99.90;;;;;;5034340;28;20646;-74
2021/03/24 06:42:07;;;;;;;12.23;8.00;;;6.30;99.90;;;;;;5021673;28;20210;-73
2021/03/24 06:44:57;;;;;;;16.63;7.90;;;6.40;99.90;;;;;;5029548;28;20202;-73
2021/03/24 06:47:34;;;;;;;10.57;6.67;;;6.50;99.90;;;;;;4987818;28;20218;-75
2021/03/24 06:50:39;;;;;;;12.57;7.53;;;6.70;99.90;;;;;;5032489;28;20608;-73
2021/03/24 06:53:44;;;;;;;16.43;7.97;;;6.60;99.90;;;;;;5025280;28;20210;-74
2021/03/24 06:56:38;;;;;;;13.17;7.60;;;6.70;99.90;;;;;;5021362;28;20660;-73
2021/03/24 06:59:33;;;;;;;10.03;7.13;;;6.70;99.90;;;;;;5029425;28;20214;-74
2021/03/24 07:02:43;;;;;;;16.77;7.47;;;6.80;99.90;;;;;;5027423;28;20229;-73
2021/03/24 07:05:45;;;;;;;9.53;6.50;;;6.90;99.90;;;;;;5005471;28;20293;-77
2021/03/24 07:08:41;;;;;;;11.37;7.00;;;6.90;99.90;;;;;;5031767;28;20208;-75
2021/03/24 07:11:21;;;;;;;13.20;7.23;;;6.90;99.90;;;;;;4988634;28;20215;-76
2021/03/24 07:14:19;;;;;;;15.13;8.10;;;6.90;99.90;;;;;;5034039;28;20230;-74
2021/03/24 07:17:16;;;;;;;13.37;8.10;;;6.90;99.90;;;;;;5025154;28;20277;-74
2021/03/24 07:20:04;;;;;;;14.73;8.40;;;6.90;99.90;;;;;;5016541;28;20222;-76
2021/03/24 07:22:54;;;;;;;14.23;7.73;;;6.90;99.90;;;;;;5025456;28;20698;-72
2021/03/24 07:25:46;;;;;;;15.70;8.10;;;6.90;99.90;;;;;;5025605;28;20211;-71
2021/03/24 07:28:51;;;;;;;10.97;7.40;;;7.00;99.90;;;;;;5019265;28;20215;-74
2021/03/24 07:31:41;;;;;;;14.40;8.17;;;7.20;99.90;;;;;;5010592;28;20210;-69
2021/03/24 07:34:27;;;;;;;16.30;8.23;;;7.30;99.90;;;;;;5023857;28;20298;-71
2021/03/24 07:37:16;;;;;;;13.27;7.40;;;7.40;99.90;;;;;;5025080;28;20276;-73
2021/03/24 07:40:18;;;;;;;16.30;9.13;;;7.50;99.90;;;;;;5026495;28;20219;-72
2021/03/24 07:43:10;;;;;;;17.53;10.07;;;7.60;99.90;;;;;;5030574;28;20203;-74
2021/03/24 07:45:53;;;;;;;19.07;11.87;;;7.70;99.90;;;;;;5025199;28;20219;-72
2021/03/24 07:48:42;;;;;;;18.13;11.90;;;7.90;99.90;;;;;;5032217;28;20284;-76
2021/03/24 07:51:16;;;;;;;18.07;12.07;;;8.10;99.90;;;;;;5027753;28;20231;-72
2021/03/24 07:53:49;;;;;;;19.33;11.77;;;8.20;99.90;;;;;;5038390;28;20650;-75
2021/03/24 07:56:29;;;;;;;20.77;12.30;;;8.30;99.90;;;;;;5032217;28;20323;-75
2021/03/24 07:59:23;;;;;;;19.57;12.83;;;8.30;99.90;;;;;;5032902;28;20216;-75
2021/03/24 08:02:03;;;;;;;18.97;11.27;;;8.40;99.90;;;;;;5041538;28;20294;-75
2021/03/24 08:04:45;;;;;;;18.77;11.90;;;8.50;99.90;;;;;;5032729;28;20215;-75
2021/03/24 08:07:21;;;;;;;19.97;12.27;;;8.50;99.90;;;;;;5025891;28;20346;-74
2021/03/24 08:10:02;;;;;;;16.17;10.93;;;8.60;99.90;;;;;;5024886;28;20267;-76
2021/03/24 08:12:53;;;;;;;34.47;20.20;;;8.60;99.90;;;;;;5030722;28;20211;-73
2021/03/24 08:15:51;;;;;;;19.13;11.50;;;8.70;99.90;;;;;;5028096;28;20223;-74
2021/03/24 08:18:30;;;;;;;17.00;9.17;;;8.70;99.90;;;;;;5033344;28;20274;-73
2021/03/24 08:21:05;;;;;;;13.63;8.73;;;8.80;99.90;;;;;;5024074;28;20226;-71
2021/03/24 08:24:02;;;;;;;14.40;8.57;;;8.80;99.90;;;;;;5020363;28;20197;-73
2021/03/24 08:26:38;;;;;;;14.70;8.30;;;8.90;99.90;;;;;;5029384;28;20284;-74
2021/03/24 08:29:16;;;;;;;18.37;11.03;;;9.00;99.90;;;;;;5030205;28;20784;-71
2021/03/24 08:32:24;;;;;;;15.87;9.30;;;8.90;99.90;;;;;;5024558;28;20210;-73
2021/03/24 08:35:18;;;;;;;16.60;9.67;;;8.90;99.90;;;;;;5030870;28;20653;-74
2021/03/24 08:38:16;;;;;;;17.57;8.87;;;8.90;99.90;;;;;;5029113;28;20349;-74
2021/03/24 08:41:14;;;;;;;15.97;8.57;;;8.90;99.90;;;;;;5023957;28;20262;-70
2021/03/24 08:43:50;;;;;;;13.77;8.90;;;9.00;99.90;;;;;;5033497;28;20252;-70
2021/03/24 08:46:23;;;;;;;14.60;8.37;;;9.20;99.90;;;;;;5029662;28;20615;-71
2021/03/24 08:48:54;;;;;;;13.80;8.93;;;9.40;99.90;;;;;;5030749;28;20209;-71
2021/03/24 08:51:38;;;;;;;11.27;7.77;;;9.50;99.90;;;;;;5028110;28;20668;-71
2021/03/24 08:54:43;;;;;;;10.93;7.63;;;9.60;99.90;;;;;;5025175;28;20305;-71
2021/03/24 08:57:19;;;;;;;13.37;7.63;;;9.60;99.90;;;;;;4952319;28;20288;-72
2021/03/24 08:59:51;;;;;;;14.13;7.63;;;9.50;99.90;;;;;;5017552;28;20663;-75
2021/03/24 09:02:35;;;;;;;14.27;7.67;;;9.50;99.90;;;;;;5032573;28;20691;-73
2021/03/24 09:05:12;;;;;;;12.37;7.47;;;9.40;99.90;;;;;;5029625;28;20286;-72
2021/03/24 09:08:05;;;;;;;12.30;7.23;;;9.50;99.90;;;;;;5030490;28;20225;-73
2021/03/24 09:10:45;;;;;;;13.47;7.53;;;9.50;99.90;;;;;;5032150;28;20207;-72
2021/03/24 09:13:21;;;;;;;11.37;7.53;;;9.60;99.90;;;;;;5026286;28;20294;-70
2021/03/24 09:16:12;;;;;;;26.10;16.03;;;9.60;99.90;;;;;;5023728;28;20241;-68
2021/03/24 09:18:44;;;;;;;24.37;14.60;;;9.60;99.90;;;;;;5024824;28;20206;-69
2021/03/24 09:21:17;;;;;;;13.43;8.27;;;9.60;99.90;;;;;;5020667;28;20203;-69
2021/03/24 09:24:23;;;;;;;13.63;8.30;;;9.60;99.90;;;;;;5024175;28;20204;-68
2021/03/24 09:27:31;;;;;;;14.57;7.60;;;9.60;99.90;;;;;;5024381;28;20308;-67
2021/03/24 09:30:16;;;;;;;10.40;7.10;;;9.60;99.90;;;;;;5027725;28;20297;-69
2021/03/24 09:32:52;;;;;;;12.07;7.50;;;9.70;99.30;;;;;;5027256;28;20211;-68
2021/03/24 09:35:31;;;;;;;12.07;7.30;;;9.70;99.00;;;;;;5029440;28;20674;-71
2021/03/24 09:38:02;;;;;;;14.70;8.30;;;9.70;98.50;;;;;;5015561;28;20283;-68
2021/03/24 09:40:34;;;;;;;12.87;7.97;;;9.60;98.70;;;;;;5030063;28;20556;-71
2021/03/24 09:43:04;;;;;;;10.23;6.87;;;9.60;99.00;;;;;;5029822;28;20672;-69
2021/03/24 09:45:35;;;;;;;10.87;7.37;;;9.60;98.80;;;;;;5021684;28;20289;-70
2021/03/24 09:48:06;;;;;;;13.60;7.47;;;9.50;98.80;;;;;;5028592;28;20191;-70
2021/03/24 09:50:38;;;;;;;9.27;6.90;;;9.50;98.70;;;;;;5034046;28;20249;-68
2021/03/24 09:53:10;;;;;;;9.63;6.60;;;9.50;98.60;;;;;;5024440;28;20237;-70
2021/03/24 09:55:40;;;;;;;11.23;6.83;;;9.50;98.60;;;;;;5028605;28;20212;-69
2021/03/24 09:58:41;;;;;;;10.50;6.30;;;9.60;98.30;;;;;;5031137;28;20226;-70
2021/03/24 10:01:26;;;;;;;15.30;6.90;;;9.70;98.00;;;;;;5027051;28;20671;-69
2021/03/24 10:03:59;;;;;;;11.50;6.97;;;9.70;97.60;;;;;;5011664;28;20206;-73
2021/03/24 10:06:31;;;;;;;11.33;6.50;;;9.80;97.40;;;;;;5030456;28;20326;-70
2021/03/24 10:09:05;;;;;;;10.73;6.93;;;9.80;96.90;;;;;;5028906;28;20210;-67
2021/03/24 10:11:42;;;;;;;11.10;6.40;;;9.80;97.00;;;;;;5029422;28;20203;-69
2021/03/24 10:14:11;;;;;;;11.37;7.27;;;9.80;96.60;;;;;;5022953;28;20345;-70
2021/03/24 10:16:42;;;;;;;9.63;6.70;;;9.80;96.30;;;;;;5028530;28;20281;-71
2021/03/24 10:19:16;;;;;;;11.20;6.70;;;9.70;96.00;;;;;;5026006;28;20216;-71
2021/03/24 10:21:48;;;;;;;10.47;6.93;;;9.70;96.20;;;;;;5027009;28;20231;-70
2021/03/24 10:24:17;;;;;;;15.73;6.23;;;9.70;96.40;;;;;;5020903;28;20573;-70
2021/03/24 10:26:51;;;;;;;11.93;6.80;;;9.70;96.60;;;;;;5028334;28;20238;-71
2021/03/24 10:29:21;;;;;;;11.97;7.27;;;9.70;96.60;;;;;;5025387;28;20238;-71
2021/03/24 10:31:51;;;;;;;14.57;6.80;;;9.70;96.50;;;;;;5022178;28;20243;-70
2021/03/24 10:34:22;;;;;;;11.13;6.70;;;9.80;96.60;;;;;;5024506;28;20238;-69
2021/03/24 10:36:56;;;;;;;10.20;6.63;;;9.80;96.30;;;;;;5023939;28;20233;-70
2021/03/24 10:39:28;;;;;;;9.23;6.47;;;9.80;96.00;;;;;;5022104;28;20285;-70
2021/03/24 10:42:00;;;;;;;10.47;6.00;;;9.80;95.70;;;;;;5028239;28;20690;-70
2021/03/24 10:44:40;;;;;;;11.47;6.13;;;9.80;95.20;;;;;;5028259;28;20290;-70
2021/03/24 10:47:19;;;;;;;9.00;6.20;;;9.80;95.20;;;;;;5022005;28;20206;-70
2021/03/24 10:49:54;;;;;;;11.43;6.90;;;9.80;95.30;;;;;;5033755;28;20207;-70
2021/03/24 10:52:24;;;;;;;10.17;6.30;;;9.90;95.10;;;;;;5030140;28;20662;-70
2021/03/24 10:54:59;;;;;;;9.20;6.37;;;9.90;94.90;;;;;;5025427;28;20290;-70
2021/03/24 10:57:37;;;;;;;11.70;7.30;;;9.90;94.90;;;;;;5032386;28;20618;-68
2021/03/24 11:00:14;;;;;;;12.50;6.60;;;9.90;94.70;;;;;;5019146;28;20208;-68
2021/03/24 11:02:50;;;;;;;12.20;7.00;;;9.90;94.80;;;;;;5020327;28;20209;-70
2021/03/24 11:05:25;;;;;;;8.70;6.33;;;9.90;94.80;;;;;;5027752;28;20675;-70
2021/03/24 11:07:57;;;;;;;8.30;6.37;;;9.80;94.70;;;;;;5029404;28;20202;-71
2021/03/24 11:10:37;;;;;;;7.30;6.03;;;9.70;94.70;;;;;;5028240;28;20224;-69
2021/03/24 11:13:11;;;;;;;10.93;5.87;;;9.70;94.90;;;;;;5032925;28;20252;-71
2021/03/24 11:15:53;;;;;;;9.37;6.40;;;9.60;95.30;;;;;;5034239;28;20211;-70
2021/03/24 11:18:27;;;;;;;8.30;6.10;;;9.70;95.50;;;;;;5026389;28;20280;-71
2021/03/24 11:20:56;;;;;;;12.73;6.40;;;9.70;95.60;;;;;;5032956;28;20297;-68
2021/03/24 11:23:29;;;;;;;10.60;7.07;;;9.70;95.70;;;;;;5026364;28;20294;-69
2021/03/24 11:25:58;;;;;;;7.90;6.23;;;9.70;95.50;;;;;;5033987;28;20213;-69
2021/03/24 11:28:29;;;;;;;10.17;6.80;;;9.80;95.50;;;;;;5032237;28;20627;-72
2021/03/24 11:31:04;;;;;;;9.07;6.23;;;9.90;95.10;;;;;;5033811;28;20291;-73
2021/03/24 11:33:37;;;;;;;11.17;6.30;;;9.80;95.10;;;;;;5035378;28;20210;-72
2021/03/24 11:36:09;;;;;;;9.10;6.47;;;9.90;95.40;;;;;;5035644;28;20307;-72
2021/03/24 11:38:45;;;;;;;11.07;7.20;;;10.00;94.70;;;;;;5035499;28;20236;-73
2021/03/24 11:41:14;;;;;;;10.50;6.53;;;10.20;94.70;;;;;;5032876;28;20202;-72
2021/03/24 11:43:44;;;;;;;9.07;6.37;;;10.30;94.30;;;;;;5033651;28;20234;-73
2021/03/24 11:46:28;;;;;;;11.33;7.40;;;10.40;93.60;;;;;;5034408;28;20202;-72
2021/03/24 11:49:12;;;;;;;11.27;7.10;;;10.50;92.90;;;;;;5035745;28;20568;-73
2021/03/24 11:51:59;;;;;;;11.00;7.00;;;10.60;92.30;;;;;;5035020;28;20230;-73
2021/03/24 11:54:35;;;;;;;9.97;7.23;;;10.50;92.00;;;;;;5035627;28;20227;-73
2021/03/24 11:57:19;;;;;;;12.63;7.93;;;10.40;92.20;;;;;;5035062;28;20207;-73
2021/03/24 12:00:11;;;;;;;12.50;8.03;;;10.20;92.80;;;;;;5035682;28;20206;-73
2021/03/24 12:02:51;;;;;;;12.83;8.07;;;10.10;93.60;;;;;;5033974;28;20325;-74
2021/03/24 12:05:23;;;;;;;12.20;8.80;;;10.00;94.30;;;;;;5033211;28;20241;-73
2021/03/24 12:08:25;;;;;;;12.17;8.40;;;9.90;95.60;;;;;;5034019;28;20598;-75
2021/03/24 12:11:02;;;;;;;12.23;7.63;;;9.80;96.00;;;;;;5022397;28;20301;-73
2021/03/24 12:13:31;;;;;;;11.13;7.70;;;9.80;96.30;;;;;;5030781;28;20226;-72
2021/03/24 12:16:17;;;;;;;11.20;7.83;;;9.70;96.30;;;;;;5035099;28;20414;-72
2021/03/24 12:18:49;;;;;;;14.47;8.83;;;9.70;96.50;;;;;;5040373;28;20531;-73
2021/03/24 12:21:23;;;;;;;12.90;7.40;;;9.70;96.20;;;;;;5030482;28;20337;-75
2021/03/24 12:23:52;;;;;;;15.43;8.03;;;9.80;96.20;;;;;;5026902;28;20201;-74
2021/03/24 12:26:38;;;;;;;12.67;8.07;;;9.70;96.00;;;;;;5033046;28;20333;-72
2021/03/24 12:29:08;;;;;;;11.43;8.47;;;9.70;96.40;;;;;;5032149;28;20241;-72
2021/03/24 12:31:46;;;;;;;14.50;8.67;;;9.70;96.70;;;;;;5034084;28;20842;-73
2021/03/24 12:34:15;;;;;;;12.80;8.17;;;9.80;96.80;;;;;;5033236;28;20276;-70
2021/03/24 12:36:50;;;;;;;12.73;8.47;;;9.70;96.70;;;;;;5027434;28;20558;-70
2021/03/24 12:39:27;;;;;;;11.50;8.20;;;9.70;96.30;;;;;;5034261;28;20206;-68
2021/03/24 12:41:53;;;;;;;9.90;8.07;;;9.60;96.10;;;;;;5031319;28;20272;-71
2021/03/24 12:47:48;;;;;;;10.13;8.20;;;9.40;96.60;;;;;;5026855;28;20269;-69
2021/03/24 12:50:52;;;;;;;13.20;9.43;;;9.50;96.90;;;;;;5032728;28;20210;-70
2021/03/24 12:53:39;;;;;;;12.13;7.73;;;9.60;96.90;;;;;;5032257;28;20766;-71
2021/03/24 12:56:41;;;;;;;12.47;8.37;;;9.60;97.00;;;;;;5025871;28;20714;-69
2021/03/24 12:59:20;;;;;;;11.10;8.20;;;9.60;96.80;;;;;;5028855;28;20256;-69
2021/03/24 13:01:53;;;;;;;15.90;10.20;;;9.60;97.00;;;;;;5032299;28;20291;-68
2021/03/24 13:04:46;;;;;;;14.10;8.80;;;9.60;97.30;;;;;;5031939;28;20202;-70
2021/03/24 13:07:31;;;;;;;10.93;8.13;;;9.70;97.40;;;;;;5031569;28;20286;-70
2021/03/24 13:10:24;;;;;;;17.10;9.93;;;9.70;97.40;;;;;;5031341;28;20195;-78
2021/03/24 13:13:01;;;;;;;15.27;8.93;;;9.80;97.30;;;;;;5033096;28;20273;-71
2021/03/24 13:15:36;;;;;;;14.50;9.63;;;9.80;97.00;;;;;;5034279;28;20678;-72
2021/03/24 13:18:12;;;;;;;15.67;9.63;;;9.80;96.80;;;;;;5034570;28;20246;-73
2021/03/24 13:20:50;;;;;;;12.63;9.17;;;9.90;96.80;;;;;;5033729;28;20622;-73
2021/03/24 13:23:26;;;;;;;15.63;9.37;;;9.90;96.80;;;;;;5035992;28;20210;-70
2021/03/24 13:25:56;;;;;;;11.37;8.83;;;10.10;95.90;;;;;;5033963;28;20260;-72
2021/03/24 13:28:35;;;;;;;12.97;8.73;;;10.10;95.50;;;;;;5035710;28;20219;-68
2021/03/24 13:31:09;;;;;;;16.73;9.33;;;10.30;95.70;;;;;;5035793;28;20289;-69
2021/03/24 13:33:48;;;;;;;14.77;9.80;;;10.40;95.10;;;;;;5036672;28;20215;-69
2021/03/24 13:36:19;;;;;;;10.87;8.53;;;10.50;94.80;;;;;;5034714;28;20206;-72
2021/03/24 13:38:51;;;;;;;12.37;7.93;;;10.70;93.80;;;;;;5035499;28;20202;-68